Norwegian Gem — C6VG8 — position and weather

sailwx.info

Track history (hours):
 
Tides and Currents Weather Stations Pressure Air Temp Water Temp Dewpoint Dewpoint Depression Visibility Wind Speed Wind Dir Waves Ship Positions

Norwegian Gem (Bahamas)

Last reported at 2017-Sep-17 04:52 UTC. Time now 2017-Sep-20 00:35 UTC.
Position N 40°23' W 072°03'.

Length 294 m; draft 8.6 m.

Type: Ship. MMSI: 309951000.

Date/timePositionNaut miles runAvg speedWind from/ knotsBaromVisibWave heightAir tempDewpointWater temp
2017-Sep-17 04:52N 40°23' W 072°03'820.0
2017-Sep-17 04:28N 40°23' W 072°14'919.9
2017-Sep-17 04:00N 40°23' W 072°26'1019.9
2017-Sep-17 03:30N 40°23' W 072°39'1019.9
2017-Sep-17 03:00N 40°22' W 072°52'1019.9
2017-Sep-17 02:30N 40°22' W 073°05'1019.8
2017-Sep-17 02:00N 40°23' W 073°18'1019.7
2017-Sep-17 01:30N 40°24' W 073°31'1019.6
2017-Sep-17 00:59N 40°26' W 073°44'715.3
2017-Sep-17 00:30N 40°29' W 073°53'918.5
2017-Sep-17 00:01N 40°34' W 074°02'714.3
2017-Sep-16 23:31N 40°42' W 074°02'5 9.2
2017-Sep-16 23:00N 40°46' W 073°60'0 0.1
2017-Sep-16 22:28N 40°46' W 073°60'0 0.0
2017-Sep-16 21:58N 40°46' W 073°60'0 0.0
2017-Sep-16 21:30N 40°46' W 073°60'0 0.0
2017-Sep-16 21:00N 40°46' W 073°60'0 0.0
2017-Sep-16 20:30N 40°46' W 073°60'0 0.0
2017-Sep-16 20:00N 40°46' W 073°60'0 0.0
2017-Sep-16 19:30N 40°46' W 073°60'0 0.0
2017-Sep-16 18:59N 40°46' W 073°60'0 0.0
2017-Sep-16 18:29N 40°46' W 073°60'0 0.0
2017-Sep-16 17:59N 40°46' W 073°60'0 0.0
2017-Sep-16 17:29N 40°46' W 073°60'0 0.0
2017-Sep-16 16:59N 40°46' W 073°60'0 0.0
2017-Sep-16 16:28N 40°46' W 073°60'0 0.0
2017-Sep-16 15:58N 40°46' W 073°60'0 0.0
2017-Sep-16 15:28N 40°46' W 073°60'0 0.0
2017-Sep-16 14:59N 40°46' W 073°60'0 0.0
2017-Sep-16 14:26N 40°46' W 073°60'0 0.0
2017-Sep-16 13:58N 40°46' W 073°60'0 0.0
2017-Sep-16 13:25N 40°46' W 073°60'0 0.0
2017-Sep-16 12:58N 40°46' W 073°60'0 0.0
2017-Sep-16 12:28N 40°46' W 073°60'0 0.0
2017-Sep-16 12:01N 40°46' W 073°60'0 0.0
2017-Sep-16 11:30N 40°46' W 073°60'0 0.5
2017-Sep-16 11:00N 40°46' W 074°00'4 7.5
2017-Sep-16 10:30N 40°42' W 074°01'612.7
2017-Sep-16 10:00N 40°36' W 074°03'815.1
2017-Sep-16 09:30N 40°30' W 073°57'815.4
2017-Sep-16 09:00N 40°27' W 073°47'613.2
2017-Sep-16 08:30N 40°27' W 073°39'814.7
2017-Sep-16 08:00N 40°28' W 073°29'714.1
2017-Sep-16 07:30N 40°29' W 073°20'714.0
2017-Sep-16 06:59N 40°30' W 073°11'713.9
2017-Sep-16 06:30N 40°30' W 073°02'713.9
2017-Sep-16 06:00N 40°30' W 072°53'714.0
2017-Sep-16 05:30N 40°30' W 072°44'714.0
2017-Sep-16 05:00N 40°31' W 072°34'713.9
2017-Sep-16 04:30N 40°31' W 072°25'713.7
2017-Sep-16 04:00N 40°31' W 072°16'1713.8
2017-Sep-16 02:46N 40°31' W 071°54'413.9
2017-Sep-16 02:30N 40°31' W 071°49'132 8.0
2017-Sep-15 10:00N 41°30' W 069°12'3516.7 230 / 251016.0 5.4 20.0 20.0
2017-Sep-15 07:53N 42°03' W 069°27'514.0
2017-Sep-15 07:30N 42°08' W 069°29'2313.9
2017-Sep-15 05:52N 42°30' W 069°40'813.5
2017-Sep-15 05:18N 42°37' W 069°43'414.0
2017-Sep-15 04:59N 42°41' W 069°44'714.0
2017-Sep-15 04:30N 42°48' W 069°47'713.9
2017-Sep-15 04:00N 42°54' W 069°50'1514.0
2017-Sep-15 02:57N 43°08' W 069°57'614.0
2017-Sep-15 02:30N 43°14' W 069°60'714.1
2017-Sep-15 02:01N 43°21' W 070°03'713.9
2017-Sep-15 01:30N 43°27' W 070°05'713.1
2017-Sep-15 01:00N 43°34' W 070°08'713.5
2017-Sep-15 00:30N 43°39' W 070°13'1 2.4
2017-Sep-15 00:00N 43°39' W 070°15'0 0.0
2017-Sep-14 21:41N 43°39' W 070°15'0 0.0
2017-Sep-14 21:26N 43°39' W 070°15'0 0.0
2017-Sep-14 20:59N 43°39' W 070°15'0 0.0
2017-Sep-14 20:29N 43°39' W 070°15'0 0.0
2017-Sep-14 19:59N 43°39' W 070°15'0 0.0
2017-Sep-14 19:28N 43°39' W 070°15'0 0.0
2017-Sep-14 18:58N 43°39' W 070°15'0 0.0
2017-Sep-14 18:28N 43°39' W 070°15'0 0.0
2017-Sep-14 17:58N 43°39' W 070°15'0 0.0
2017-Sep-14 17:25N 43°39' W 070°15'0 0.0
2017-Sep-14 17:00N 43°39' W 070°15'0 0.0
2017-Sep-14 16:30N 43°39' W 070°15'0 0.0
2017-Sep-14 16:00N 43°39' W 070°15'0 0.0
2017-Sep-14 15:30N 43°39' W 070°15'0 0.0
2017-Sep-14 14:59N 43°39' W 070°15'0 0.0
2017-Sep-14 14:29N 43°39' W 070°15'0 0.0
2017-Sep-14 13:59N 43°39' W 070°15'0 0.0
2017-Sep-14 13:29N 43°39' W 070°15'0 0.0
2017-Sep-14 12:59N 43°39' W 070°15'0 0.0
2017-Sep-14 12:28N 43°39' W 070°15'0 0.0
2017-Sep-14 11:58N 43°39' W 070°15'0 0.0
2017-Sep-14 11:30N 43°39' W 070°15'1 1.7
2017-Sep-14 11:00N 43°40' W 070°14'611.5
2017-Sep-14 10:30N 43°35' W 070°09'612.3
2017-Sep-14 10:00N 43°31' W 070°02'510.1
2017-Sep-14 09:30N 43°30' W 069°55'510.3
2017-Sep-14 09:00N 43°29' W 069°49'510.2
2017-Sep-14 08:30N 43°27' W 069°42'510.1
2017-Sep-14 08:00N 43°26' W 069°35'5 9.7
2017-Sep-14 07:30N 43°26' W 069°29'510.0
2017-Sep-14 07:00N 43°28' W 069°22'510.0
2017-Sep-14 06:30N 43°30' W 069°16'510.0
2017-Sep-14 06:00N 43°32' W 069°09'610.1
2017-Sep-14 05:24N 43°34' W 069°02'4 9.7
2017-Sep-14 05:00N 43°36' W 068°57'5 9.9
2017-Sep-14 04:29N 43°39' W 068°51'5 9.9
2017-Sep-14 04:00N 43°42' W 068°46'5 9.8
2017-Sep-14 03:30N 43°45' W 068°41'5 9.9
2017-Sep-14 03:00N 43°49' W 068°36'5 9.9
2017-Sep-14 02:30N 43°52' W 068°30'510.0
2017-Sep-14 01:59N 43°55' W 068°25'710.0
2017-Sep-14 01:18N 43°60' W 068°17'39 2.1
2017-Sep-13 07:00N 44°06' W 067°24'   340 / 221007.010.8
2017-Sep-10 10:00N 40°24' W 070°18'5518.4 350 / 241024.0 5.4 17.0 17.0
2017-Sep-10 07:00N 40°18' W 071°30'10021.5 010 / 71023.0 17.5 21.0
2017-Sep-10 02:19N 40°26' W 073°41'617.9
2017-Sep-10 02:00N 40°27' W 073°49'715.2
2017-Sep-10 01:30N 40°30' W 073°57'816.4
2017-Sep-10 01:01N 40°37' W 074°03'612.8
2017-Sep-10 00:31N 40°44' W 074°01'3 5.3
2017-Sep-10 00:00N 40°46' W 073°60'0 0.0
2017-Sep-09 23:29N 40°46' W 073°60'0 0.0
2017-Sep-09 22:59N 40°46' W 073°60'0 0.0
2017-Sep-09 22:26N 40°46' W 073°60'0 0.0
2017-Sep-09 21:58N 40°46' W 073°60'0 0.0
2017-Sep-09 21:28N 40°46' W 073°60'0 0.0
2017-Sep-09 20:58N 40°46' W 073°60'0 0.0
2017-Sep-09 20:28N 40°46' W 073°60'0 0.0
2017-Sep-09 20:01N 40°46' W 073°60'0 0.0
2017-Sep-09 19:30N 40°46' W 073°60'0 0.0
2017-Sep-09 18:57N 40°46' W 073°60'0 0.0
2017-Sep-09 18:30N 40°46' W 073°60'0 0.0
2017-Sep-09 18:00N 40°46' W 073°60'0 0.0
2017-Sep-09 17:29N 40°46' W 073°60'0 0.0
2017-Sep-09 16:56N 40°46' W 073°60'0 0.0
2017-Sep-09 16:30N 40°46' W 073°60'0 0.0
2017-Sep-09 16:00N 40°46' W 073°60'0 0.0
2017-Sep-09 15:30N 40°46' W 073°60'0 0.0
2017-Sep-09 14:59N 40°46' W 073°60'0 0.0
2017-Sep-09 14:29N 40°46' W 073°60'0 0.0
2017-Sep-09 13:59N 40°46' W 073°60'0 0.0
2017-Sep-09 13:29N 40°46' W 073°60'0 0.0
2017-Sep-09 12:59N 40°46' W 073°60'0 0.0
2017-Sep-09 12:28N 40°46' W 073°60'0 0.0
2017-Sep-09 11:58N 40°46' W 073°60'0 0.4
2017-Sep-09 11:30N 40°46' W 074°00'3 5.0
2017-Sep-09 11:00N 40°44' W 074°01'4 8.9
2017-Sep-09 10:30N 40°40' W 074°03'611.1
2017-Sep-09 10:00N 40°34' W 074°02'713.7
2017-Sep-09 09:30N 40°29' W 073°55'611.8
2017-Sep-09 09:01N 40°27' W 073°48'6327.2
2017-Sep-09 09:00N 40°24' W 073°42'4 7.5 010 / 231021.010.8 16.0 15.0
2017-Sep-09 08:30N 40°28' W 073°40'3514.1
2017-Sep-09 06:00N 40°30' W 072°54'14115.7 020 / 261021.010.8 16.7 15.0
2017-Sep-08 21:00N 40°30' W 069°48'77 7.0 230 / 121019.010.8 19.0 22.0
2017-Sep-08 10:06N 41°43' W 069°17'312.9
2017-Sep-08 09:53N 41°46' W 069°18'712.8
2017-Sep-08 09:22N 41°52' W 069°21'512.7
2017-Sep-08 09:00N 41°56' W 069°23'5314.4
2017-Sep-08 09:00N 41°54' W 069°18'1021.2 290 / 291016.0 5.4 17.0 20.0
2017-Sep-08 08:31N 42°02' W 069°26'612.8
2017-Sep-08 08:00N 42°08' W 069°29'713.4
2017-Sep-08 07:30N 42°15' W 069°32'612.9
2017-Sep-08 07:00N 42°21' W 069°35'4279.6
2017-Sep-08 07:00N 42°18' W 069°30'1021.2 270 / 221013.010.8 16.5 15.0
2017-Sep-08 06:30N 42°27' W 069°37'612.8
2017-Sep-08 06:00N 42°33' W 069°40'712.8
2017-Sep-08 05:29N 42°39' W 069°43'612.9
2017-Sep-08 05:00N 42°45' W 069°46'712.9
2017-Sep-08 04:28N 42°52' W 069°49'612.8
2017-Sep-08 03:59N 42°57' W 069°52'612.7
2017-Sep-08 03:30N 43°03' W 069°55'612.6
2017-Sep-08 03:00N 43°09' W 069°57'612.7
2017-Sep-08 02:30N 43°15' W 069°60'712.7
2017-Sep-08 01:59N 43°21' W 070°03'16 2.0
2017-Sep-07 18:00N 43°36' W 070°12'   280 / 121007.010.8 20.0 16.0
Track history (hours):
 
Tides and Currents Weather Stations Pressure Air Temp Water Temp Dewpoint Dewpoint Depression Visibility Wind Speed Wind Dir Waves Ship Positions

Norwegian Gem (Bahamas)

Last reported at 2017-Sep-17 04:52 UTC. Time now 2017-Sep-20 00:35 UTC.
Position N 40°23' W 072°03'.

Length 294 m; draft 8.6 m.

Type: Ship. MMSI: 309951000.

Date/timePositionNaut miles runAvg speedWind from/ knotsBaromVisibWave heightAir tempDewpointWater temp
2017-Sep-17 04:52N 40°23' W 072°03'820.0
2017-Sep-17 04:28N 40°23' W 072°14'919.9
2017-Sep-17 04:00N 40°23' W 072°26'1019.9
2017-Sep-17 03:30N 40°23' W 072°39'1019.9
2017-Sep-17 03:00N 40°22' W 072°52'1019.9
2017-Sep-17 02:30N 40°22' W 073°05'1019.8
2017-Sep-17 02:00N 40°23' W 073°18'1019.7
2017-Sep-17 01:30N 40°24' W 073°31'1019.6
2017-Sep-17 00:59N 40°26' W 073°44'715.3
2017-Sep-17 00:30N 40°29' W 073°53'918.5
2017-Sep-17 00:01N 40°34' W 074°02'714.3
2017-Sep-16 23:31N 40°42' W 074°02'5 9.2
2017-Sep-16 23:00N 40°46' W 073°60'0 0.1
2017-Sep-16 22:28N 40°46' W 073°60'0 0.0
2017-Sep-16 21:58N 40°46' W 073°60'0 0.0
2017-Sep-16 21:30N 40°46' W 073°60'0 0.0
2017-Sep-16 21:00N 40°46' W 073°60'0 0.0
2017-Sep-16 20:30N 40°46' W 073°60'0 0.0
2017-Sep-16 20:00N 40°46' W 073°60'0 0.0
2017-Sep-16 19:30N 40°46' W 073°60'0 0.0
2017-Sep-16 18:59N 40°46' W 073°60'0 0.0
2017-Sep-16 18:29N 40°46' W 073°60'0 0.0
2017-Sep-16 17:59N 40°46' W 073°60'0 0.0
2017-Sep-16 17:29N 40°46' W 073°60'0 0.0
2017-Sep-16 16:59N 40°46' W 073°60'0 0.0
2017-Sep-16 16:28N 40°46' W 073°60'0 0.0
2017-Sep-16 15:58N 40°46' W 073°60'0 0.0
2017-Sep-16 15:28N 40°46' W 073°60'0 0.0
2017-Sep-16 14:59N 40°46' W 073°60'0 0.0
2017-Sep-16 14:26N 40°46' W 073°60'0 0.0
2017-Sep-16 13:58N 40°46' W 073°60'0 0.0
2017-Sep-16 13:25N 40°46' W 073°60'0 0.0
2017-Sep-16 12:58N 40°46' W 073°60'0 0.0
2017-Sep-16 12:28N 40°46' W 073°60'0 0.0
2017-Sep-16 12:01N 40°46' W 073°60'0 0.0
2017-Sep-16 11:30N 40°46' W 073°60'0 0.5
2017-Sep-16 11:00N 40°46' W 074°00'4 7.5
2017-Sep-16 10:30N 40°42' W 074°01'612.7
2017-Sep-16 10:00N 40°36' W 074°03'815.1
2017-Sep-16 09:30N 40°30' W 073°57'815.4
2017-Sep-16 09:00N 40°27' W 073°47'613.2
2017-Sep-16 08:30N 40°27' W 073°39'814.7
2017-Sep-16 08:00N 40°28' W 073°29'714.1
2017-Sep-16 07:30N 40°29' W 073°20'714.0
2017-Sep-16 06:59N 40°30' W 073°11'713.9
2017-Sep-16 06:30N 40°30' W 073°02'713.9
2017-Sep-16 06:00N 40°30' W 072°53'714.0
2017-Sep-16 05:30N 40°30' W 072°44'714.0
2017-Sep-16 05:00N 40°31' W 072°34'713.9
2017-Sep-16 04:30N 40°31' W 072°25'713.7
2017-Sep-16 04:00N 40°31' W 072°16'1713.8
2017-Sep-16 02:46N 40°31' W 071°54'413.9
2017-Sep-16 02:30N 40°31' W 071°49'132 8.0
2017-Sep-15 10:00N 41°30' W 069°12'3516.7 230 / 251016.0 5.4 20.0 20.0
2017-Sep-15 07:53N 42°03' W 069°27'514.0
2017-Sep-15 07:30N 42°08' W 069°29'2313.9
2017-Sep-15 05:52N 42°30' W 069°40'813.5
2017-Sep-15 05:18N 42°37' W 069°43'414.0
2017-Sep-15 04:59N 42°41' W 069°44'714.0
2017-Sep-15 04:30N 42°48' W 069°47'713.9
2017-Sep-15 04:00N 42°54' W 069°50'1514.0
2017-Sep-15 02:57N 43°08' W 069°57'614.0
2017-Sep-15 02:30N 43°14' W 069°60'714.1
2017-Sep-15 02:01N 43°21' W 070°03'713.9
2017-Sep-15 01:30N 43°27' W 070°05'713.1
2017-Sep-15 01:00N 43°34' W 070°08'713.5
2017-Sep-15 00:30N 43°39' W 070°13'1 2.4
2017-Sep-15 00:00N 43°39' W 070°15'0 0.0
2017-Sep-14 21:41N 43°39' W 070°15'0 0.0
2017-Sep-14 21:26N 43°39' W 070°15'0 0.0
2017-Sep-14 20:59N 43°39' W 070°15'0 0.0
2017-Sep-14 20:29N 43°39' W 070°15'0 0.0
2017-Sep-14 19:59N 43°39' W 070°15'0 0.0
2017-Sep-14 19:28N 43°39' W 070°15'0 0.0
2017-Sep-14 18:58N 43°39' W 070°15'0 0.0
2017-Sep-14 18:28N 43°39' W 070°15'0 0.0
2017-Sep-14 17:58N 43°39' W 070°15'0 0.0
2017-Sep-14 17:25N 43°39' W 070°15'0 0.0
2017-Sep-14 17:00N 43°39' W 070°15'0 0.0
2017-Sep-14 16:30N 43°39' W 070°15'0 0.0
2017-Sep-14 16:00N 43°39' W 070°15'0 0.0
2017-Sep-14 15:30N 43°39' W 070°15'0 0.0
2017-Sep-14 14:59N 43°39' W 070°15'0 0.0
2017-Sep-14 14:29N 43°39' W 070°15'0 0.0
2017-Sep-14 13:59N 43°39' W 070°15'0 0.0
2017-Sep-14 13:29N 43°39' W 070°15'0 0.0
2017-Sep-14 12:59N 43°39' W 070°15'0 0.0
2017-Sep-14 12:28N 43°39' W 070°15'0 0.0
2017-Sep-14 11:58N 43°39' W 070°15'0 0.0
2017-Sep-14 11:30N 43°39' W 070°15'1 1.7
2017-Sep-14 11:00N 43°40' W 070°14'611.5
2017-Sep-14 10:30N 43°35' W 070°09'612.3
2017-Sep-14 10:00N 43°31' W 070°02'510.1
2017-Sep-14 09:30N 43°30' W 069°55'510.3
2017-Sep-14 09:00N 43°29' W 069°49'510.2
2017-Sep-14 08:30N 43°27' W 069°42'510.1
2017-Sep-14 08:00N 43°26' W 069°35'5 9.7
2017-Sep-14 07:30N 43°26' W 069°29'510.0
2017-Sep-14 07:00N 43°28' W 069°22'510.0
2017-Sep-14 06:30N 43°30' W 069°16'510.0
2017-Sep-14 06:00N 43°32' W 069°09'610.1
2017-Sep-14 05:24N 43°34' W 069°02'4 9.7
2017-Sep-14 05:00N 43°36' W 068°57'5 9.9
2017-Sep-14 04:29N 43°39' W 068°51'5 9.9
2017-Sep-14 04:00N 43°42' W 068°46'5 9.8
2017-Sep-14 03:30N 43°45' W 068°41'5 9.9
2017-Sep-14 03:00N 43°49' W 068°36'5 9.9
2017-Sep-14 02:30N 43°52' W 068°30'510.0
2017-Sep-14 01:59N 43°55' W 068°25'710.0
2017-Sep-14 01:18N 43°60' W 068°17'39 2.1
2017-Sep-13 07:00N 44°06' W 067°24'   340 / 221007.010.8
2017-Sep-10 10:00N 40°24' W 070°18'5518.4 350 / 241024.0 5.4 17.0 17.0
2017-Sep-10 07:00N 40°18' W 071°30'10021.5 010 / 71023.0 17.5 21.0
2017-Sep-10 02:19N 40°26' W 073°41'617.9
2017-Sep-10 02:00N 40°27' W 073°49'715.2
2017-Sep-10 01:30N 40°30' W 073°57'816.4
2017-Sep-10 01:01N 40°37' W 074°03'612.8
2017-Sep-10 00:31N 40°44' W 074°01'3 5.3
2017-Sep-10 00:00N 40°46' W 073°60'0 0.0
2017-Sep-09 23:29N 40°46' W 073°60'0 0.0
2017-Sep-09 22:59N 40°46' W 073°60'0 0.0
2017-Sep-09 22:26N 40°46' W 073°60'0 0.0
2017-Sep-09 21:58N 40°46' W 073°60'0 0.0
2017-Sep-09 21:28N 40°46' W 073°60'0 0.0
2017-Sep-09 20:58N 40°46' W 073°60'0 0.0
2017-Sep-09 20:28N 40°46' W 073°60'0 0.0
2017-Sep-09 20:01N 40°46' W 073°60'0 0.0
2017-Sep-09 19:30N 40°46' W 073°60'0 0.0
2017-Sep-09 18:57N 40°46' W 073°60'0 0.0
2017-Sep-09 18:30N 40°46' W 073°60'0 0.0
2017-Sep-09 18:00N 40°46' W 073°60'0 0.0
2017-Sep-09 17:29N 40°46' W 073°60'0 0.0
2017-Sep-09 16:56N 40°46' W 073°60'0 0.0
2017-Sep-09 16:30N 40°46' W 073°60'0 0.0
2017-Sep-09 16:00N 40°46' W 073°60'0 0.0
2017-Sep-09 15:30N 40°46' W 073°60'0 0.0
2017-Sep-09 14:59N 40°46' W 073°60'0 0.0
2017-Sep-09 14:29N 40°46' W 073°60'0 0.0
2017-Sep-09 13:59N 40°46' W 073°60'0 0.0
2017-Sep-09 13:29N 40°46' W 073°60'0 0.0
2017-Sep-09 12:59N 40°46' W 073°60'0 0.0
2017-Sep-09 12:28N 40°46' W 073°60'0 0.0
2017-Sep-09 11:58N 40°46' W 073°60'0 0.4
2017-Sep-09 11:30N 40°46' W 074°00'3 5.0
2017-Sep-09 11:00N 40°44' W 074°01'4 8.9
2017-Sep-09 10:30N 40°40' W 074°03'611.1
2017-Sep-09 10:00N 40°34' W 074°02'713.7
2017-Sep-09 09:30N 40°29' W 073°55'611.8
2017-Sep-09 09:01N 40°27' W 073°48'6327.2
2017-Sep-09 09:00N 40°24' W 073°42'4 7.5 010 / 231021.010.8 16.0 15.0
2017-Sep-09 08:30N 40°28' W 073°40'3514.1
2017-Sep-09 06:00N 40°30' W 072°54'14115.7 020 / 261021.010.8 16.7 15.0
2017-Sep-08 21:00N 40°30' W 069°48'77 7.0 230 / 121019.010.8 19.0 22.0
2017-Sep-08 10:06N 41°43' W 069°17'312.9
2017-Sep-08 09:53N 41°46' W 069°18'712.8
2017-Sep-08 09:22N 41°52' W 069°21'512.7
2017-Sep-08 09:00N 41°56' W 069°23'5314.4
2017-Sep-08 09:00N 41°54' W 069°18'1021.2 290 / 291016.0 5.4 17.0 20.0
2017-Sep-08 08:31N 42°02' W 069°26'612.8
2017-Sep-08 08:00N 42°08' W 069°29'713.4
2017-Sep-08 07:30N 42°15' W 069°32'612.9
2017-Sep-08 07:00N 42°21' W 069°35'4279.6
2017-Sep-08 07:00N 42°18' W 069°30'1021.2 270 / 221013.010.8 16.5 15.0
2017-Sep-08 06:30N 42°27' W 069°37'612.8
2017-Sep-08 06:00N 42°33' W 069°40'712.8
2017-Sep-08 05:29N 42°39' W 069°43'612.9
2017-Sep-08 05:00N 42°45' W 069°46'712.9
2017-Sep-08 04:28N 42°52' W 069°49'612.8
2017-Sep-08 03:59N 42°57' W 069°52'612.7
2017-Sep-08 03:30N 43°03' W 069°55'612.6
2017-Sep-08 03:00N 43°09' W 069°57'612.7
2017-Sep-08 02:30N 43°15' W 069°60'712.7
2017-Sep-08 01:59N 43°21' W 070°03'16 2.0
2017-Sep-07 18:00N 43°36' W 070°12'   280 / 121007.010.8 20.0 16.0

Dump ship's entire track history